createdAt,value
2018-06-21T00:00:37.483Z,22.30
2018-06-21T00:03:06.373Z,22.20
2018-06-21T00:05:35.092Z,22.10
2018-06-21T00:10:31.724Z,22.00
2018-06-21T00:13:00.142Z,21.90
2018-06-21T00:15:28.570Z,21.70
2018-06-21T00:17:57.035Z,21.60
2018-06-21T00:20:25.465Z,21.50
2018-06-21T00:22:53.922Z,21.50
2018-06-21T00:25:22.385Z,21.60
2018-06-21T00:27:50.858Z,21.50
2018-06-21T00:30:19.276Z,21.40
2018-06-21T00:32:47.737Z,21.30
2018-06-21T00:35:16.145Z,21.30
2018-06-21T00:37:44.589Z,21.30
2018-06-21T00:40:13.025Z,21.20
2018-06-21T00:42:41.491Z,21.10
2018-06-21T00:45:11.000Z,21.10
2018-06-21T00:47:40.178Z,21.00
2018-06-21T00:50:08.655Z,21.00
2018-06-21T00:52:37.228Z,20.90
2018-06-21T00:55:05.829Z,20.90
2018-06-21T00:57:34.277Z,20.90
2018-06-21T01:00:02.780Z,20.90
2018-06-21T01:02:31.257Z,20.90
2018-06-21T01:04:59.708Z,20.90
2018-06-21T01:07:28.139Z,20.90
2018-06-21T01:09:56.551Z,20.90
2018-06-21T01:12:25.005Z,20.90
2018-06-21T01:14:54.331Z,20.80
2018-06-21T01:17:22.811Z,20.90
2018-06-21T01:19:51.250Z,21.00
2018-06-21T01:22:19.747Z,20.90
2018-06-21T01:24:48.195Z,20.90
2018-06-21T01:27:16.627Z,20.90
2018-06-21T01:29:45.055Z,20.90
2018-06-21T01:32:13.504Z,21.00
2018-06-21T01:34:41.924Z,21.00
2018-06-21T01:37:10.359Z,21.00
2018-06-21T01:39:38.783Z,21.10
2018-06-21T01:42:07.225Z,21.10
2018-06-21T01:44:35.719Z,21.10
2018-06-21T01:47:04.202Z,21.10
2018-06-21T01:49:32.636Z,21.10
2018-06-21T01:52:01.073Z,21.10
2018-06-21T01:54:29.514Z,21.10
2018-06-21T01:56:58.027Z,21.10
2018-06-21T01:59:26.486Z,21.10
2018-06-21T02:01:55.180Z,21.10
2018-06-21T02:04:23.635Z,21.10
2018-06-21T02:06:52.095Z,21.10
2018-06-21T02:09:20.567Z,21.00
2018-06-21T02:11:48.987Z,21.10
2018-06-21T02:14:17.485Z,21.10
2018-06-21T02:16:46.007Z,21.10
2018-06-21T02:19:14.455Z,21.00
2018-06-21T02:21:42.881Z,21.00
2018-06-21T02:26:39.476Z,21.00
2018-06-21T02:29:07.927Z,21.00
2018-06-21T02:31:36.387Z,20.90
2018-06-21T02:34:04.844Z,20.90
2018-06-21T02:36:33.264Z,20.90
2018-06-21T02:39:01.725Z,20.90
2018-06-21T02:41:30.155Z,20.80
2018-06-21T02:43:58.594Z,20.80
2018-06-21T02:46:26.996Z,20.80
2018-06-21T02:48:55.431Z,20.80
2018-06-21T02:51:23.854Z,20.70
2018-06-21T02:53:52.318Z,20.70
2018-06-21T02:56:20.774Z,20.60
2018-06-21T02:58:49.203Z,20.50
2018-06-21T03:01:17.668Z,20.50
2018-06-21T03:03:46.151Z,20.50
2018-06-21T03:06:14.590Z,20.50
2018-06-21T03:08:43.018Z,20.40
2018-06-21T03:11:11.459Z,20.40
2018-06-21T03:13:39.882Z,20.40
2018-06-21T03:16:08.391Z,20.40
2018-06-21T03:18:36.978Z,20.40
2018-06-21T03:21:05.417Z,20.40
2018-06-21T03:23:33.847Z,20.40
2018-06-21T03:26:02.620Z,20.40
2018-06-21T03:28:31.048Z,20.40
2018-06-21T03:30:59.514Z,20.30
2018-06-21T03:33:27.982Z,20.30
2018-06-21T03:35:56.437Z,20.30
2018-06-21T03:38:24.900Z,20.30
2018-06-21T03:40:53.358Z,20.30
2018-06-21T03:43:21.790Z,20.20
2018-06-21T03:45:50.288Z,20.20
2018-06-21T03:48:18.736Z,20.30
2018-06-21T03:50:47.189Z,20.20
2018-06-21T03:53:15.634Z,20.20
2018-06-21T03:55:44.102Z,20.20
2018-06-21T03:58:12.528Z,20.30
2018-06-21T04:00:40.947Z,20.30
2018-06-21T04:03:09.438Z,20.40
2018-06-21T04:05:37.858Z,20.50
2018-06-21T04:08:06.340Z,20.90
2018-06-21T04:10:34.793Z,20.90
2018-06-21T04:13:03.628Z,21.00
2018-06-21T04:15:32.052Z,21.00
2018-06-21T04:18:00.548Z,20.90
2018-06-21T04:20:28.959Z,21.10
2018-06-21T04:22:57.405Z,21.20
2018-06-21T04:25:25.867Z,21.40
2018-06-21T04:27:54.329Z,21.60
2018-06-21T04:30:22.769Z,21.80
2018-06-21T04:32:51.208Z,22.10
2018-06-21T04:35:19.645Z,22.60
2018-06-21T04:37:48.105Z,22.30
2018-06-21T04:40:16.521Z,22.50
2018-06-21T04:42:45.014Z,22.70
2018-06-21T04:45:13.442Z,23.00
2018-06-21T04:47:41.892Z,23.40
2018-06-21T04:50:10.315Z,23.50
2018-06-21T04:52:38.803Z,23.50
2018-06-21T04:55:07.205Z,23.20
2018-06-21T04:57:35.671Z,23.30
2018-06-21T05:00:04.505Z,23.10
2018-06-21T05:02:32.912Z,23.00
2018-06-21T05:05:01.356Z,22.50
2018-06-21T05:07:29.803Z,22.70
2018-06-21T05:09:58.235Z,22.90
2018-06-21T05:12:26.679Z,22.40
2018-06-21T05:14:55.104Z,22.20
2018-06-21T05:17:23.574Z,22.40
2018-06-21T05:19:52.050Z,23.10
2018-06-21T05:22:20.519Z,23.70
2018-06-21T05:24:49.052Z,24.10
2018-06-21T05:27:17.506Z,24.10
2018-06-21T05:29:45.949Z,24.10
2018-06-21T05:32:14.367Z,24.20
2018-06-21T05:34:42.810Z,24.90
2018-06-21T05:37:11.286Z,24.90
2018-06-21T05:39:39.809Z,25.10
2018-06-21T05:42:08.257Z,25.10
2018-06-21T05:44:36.725Z,25.30
2018-06-21T05:47:05.205Z,25.50
2018-06-21T05:49:33.653Z,25.30
2018-06-21T05:52:02.164Z,24.90
2018-06-21T05:54:30.614Z,24.80
2018-06-21T05:56:59.104Z,25.10
2018-06-21T05:59:27.605Z,25.00
2018-06-21T06:02:04.243Z,24.20
2018-06-21T06:04:32.783Z,24.50
2018-06-21T06:07:01.231Z,24.70
2018-06-21T06:09:29.729Z,25.00
2018-06-21T06:11:58.198Z,25.10
2018-06-21T06:14:26.635Z,25.50
2018-06-21T06:16:55.622Z,25.70
2018-06-21T06:19:24.089Z,25.60
2018-06-21T06:21:52.595Z,25.40
2018-06-21T06:24:21.132Z,25.40
2018-06-21T06:26:49.706Z,25.50
2018-06-21T06:29:18.277Z,25.60
2018-06-21T06:31:46.700Z,25.60
2018-06-21T06:34:15.153Z,25.50
2018-06-21T06:36:43.675Z,26.00
2018-06-21T06:39:17.069Z,25.80
2018-06-21T06:41:46.871Z,25.30
2018-06-21T06:44:15.299Z,25.20
2018-06-21T06:46:45.039Z,25.60
2018-06-21T06:49:13.676Z,25.40
2018-06-21T06:51:42.149Z,25.60
2018-06-21T06:54:11.391Z,25.80
2018-06-21T06:56:39.941Z,25.80
2018-06-21T06:59:08.367Z,26.00
2018-06-21T07:01:36.922Z,25.90
2018-06-21T07:04:05.510Z,26.00
2018-06-21T07:06:33.959Z,25.90
2018-06-21T07:09:02.437Z,25.90
2018-06-21T07:11:31.568Z,26.30
2018-06-21T07:14:00.024Z,26.20
2018-06-21T07:16:28.511Z,26.10
2018-06-21T07:18:57.034Z,26.00
2018-06-21T07:21:25.520Z,26.10
2018-06-21T07:23:54.009Z,26.50
2018-06-21T07:26:22.615Z,26.50
2018-06-21T07:28:51.042Z,26.80
2018-06-21T07:31:19.534Z,26.80
2018-06-21T07:33:47.979Z,26.80
2018-06-21T07:36:16.435Z,26.70
2018-06-21T07:38:44.866Z,26.60
2018-06-21T07:41:13.429Z,26.60
2018-06-21T07:43:41.836Z,26.70
2018-06-21T07:46:10.263Z,26.70
2018-06-21T07:48:38.721Z,26.70
2018-06-21T07:51:07.359Z,26.70
2018-06-21T07:53:35.816Z,26.90
2018-06-21T07:56:04.304Z,26.70
2018-06-21T07:58:32.801Z,26.40
2018-06-21T08:01:01.212Z,26.50
2018-06-21T08:03:29.944Z,26.60
2018-06-21T08:05:58.778Z,26.30
2018-06-21T08:08:27.225Z,26.30
2018-06-21T08:10:55.640Z,26.00
2018-06-21T08:13:24.101Z,26.30
2018-06-21T08:15:52.631Z,26.40
2018-06-21T08:18:21.151Z,26.10
2018-06-21T08:20:49.665Z,26.50
2018-06-21T08:23:18.180Z,26.40
2018-06-21T08:25:46.615Z,25.60
2018-06-21T08:28:15.109Z,25.70
2018-06-21T08:30:43.637Z,26.00
2018-06-21T08:33:12.086Z,26.00
2018-06-21T08:35:40.520Z,26.30
2018-06-21T08:38:08.960Z,26.20
2018-06-21T08:40:37.413Z,26.10
2018-06-21T08:43:05.866Z,26.00
2018-06-21T08:45:34.329Z,25.70
2018-06-21T08:48:02.789Z,25.40
2018-06-21T08:50:31.211Z,25.70
2018-06-21T08:52:59.655Z,25.90
2018-06-21T08:55:28.084Z,25.60
2018-06-21T08:57:56.530Z,25.80
2018-06-21T09:00:24.945Z,25.90
2018-06-21T09:02:53.992Z,26.20
2018-06-21T09:05:22.452Z,26.40
2018-06-21T09:07:51.091Z,25.60
2018-06-21T09:10:19.620Z,25.50
2018-06-21T09:12:48.092Z,25.40
2018-06-21T09:15:16.711Z,25.80
2018-06-21T09:17:45.286Z,25.40
2018-06-21T09:20:13.798Z,26.00
2018-06-21T09:22:42.275Z,26.20
2018-06-21T09:25:10.725Z,26.40
2018-06-21T09:27:39.268Z,26.10
2018-06-21T09:30:07.722Z,26.40
2018-06-21T09:32:36.252Z,26.70
2018-06-21T09:35:04.730Z,26.00
2018-06-21T09:37:38.422Z,25.80
2018-06-21T09:40:12.139Z,25.70
2018-06-21T09:42:46.033Z,25.60
2018-06-21T09:45:18.755Z,25.80
2018-06-21T09:47:52.492Z,25.80
2018-06-21T09:50:20.993Z,26.20
2018-06-21T09:52:50.478Z,26.20
2018-06-21T09:55:20.203Z,26.40
2018-06-21T09:57:48.700Z,26.20
2018-06-21T10:01:20.607Z,26.30
2018-06-21T10:03:49.066Z,26.00
2018-06-21T10:06:17.501Z,26.00
2018-06-21T10:08:46.044Z,26.10
2018-06-21T10:11:14.561Z,26.00
2018-06-21T10:13:43.066Z,26.30
2018-06-21T10:16:11.523Z,26.80
2018-06-21T10:18:39.957Z,26.90
2018-06-21T10:21:08.946Z,27.50
2018-06-21T10:23:37.452Z,27.80
2018-06-21T10:26:06.036Z,27.30
2018-06-21T10:28:34.531Z,27.40
2018-06-21T10:31:02.965Z,27.70
2018-06-21T10:33:31.401Z,27.60
2018-06-21T10:35:59.853Z,27.40
2018-06-21T10:38:28.310Z,26.70
2018-06-21T10:40:56.783Z,26.70
2018-06-21T10:43:25.183Z,26.80
2018-06-21T10:45:53.611Z,27.20
2018-06-21T10:48:22.341Z,27.30
2018-06-21T10:50:50.787Z,27.20
2018-06-21T10:53:19.209Z,27.40
2018-06-21T10:55:47.661Z,27.40
2018-06-21T10:58:16.296Z,27.50
2018-06-21T11:00:44.740Z,27.00
2018-06-21T11:03:13.209Z,27.30
2018-06-21T11:05:41.664Z,27.40
2018-06-21T11:08:10.061Z,27.80
2018-06-21T11:10:38.466Z,27.60
2018-06-21T11:13:06.917Z,27.40
2018-06-21T11:15:35.334Z,27.40
2018-06-21T11:18:03.932Z,27.50
2018-06-21T11:20:32.356Z,27.00
2018-06-21T11:23:00.783Z,27.30
2018-06-21T11:25:29.196Z,27.40
2018-06-21T11:27:57.669Z,27.70
2018-06-21T11:30:26.103Z,27.90
2018-06-21T11:32:54.537Z,27.50
2018-06-21T11:35:22.952Z,27.40
2018-06-21T11:37:51.445Z,27.30
2018-06-21T11:40:19.837Z,27.70
2018-06-21T11:42:48.279Z,27.40
2018-06-21T11:45:16.735Z,27.10
2018-06-21T11:47:45.240Z,27.00
2018-06-21T11:50:13.584Z,27.30
2018-06-21T11:52:42.163Z,27.60
2018-06-21T11:55:13.547Z,27.00
2018-06-21T11:57:41.915Z,26.70
2018-06-21T12:00:10.260Z,26.50
2018-06-21T12:02:38.639Z,26.60
2018-06-21T12:05:07.035Z,26.90
2018-06-21T12:07:35.376Z,27.00
2018-06-21T12:10:03.734Z,27.00
2018-06-21T12:12:32.079Z,27.40
2018-06-21T12:15:03.558Z,27.00
2018-06-21T12:17:32.756Z,27.30
2018-06-21T12:20:01.094Z,27.50
2018-06-21T12:22:30.042Z,27.50
2018-06-21T12:24:58.395Z,27.20
2018-06-21T12:27:26.722Z,27.30
2018-06-21T12:29:55.108Z,27.50
2018-06-21T12:32:23.451Z,27.70
2018-06-21T12:34:52.371Z,27.80
2018-06-21T12:37:20.695Z,28.00
2018-06-21T12:39:49.068Z,27.50
2018-06-21T12:42:17.412Z,27.40
2018-06-21T12:44:45.784Z,27.30
2018-06-21T12:47:14.351Z,27.00
2018-06-21T12:49:42.731Z,26.80
2018-06-21T12:52:11.100Z,26.40
2018-06-21T12:54:39.459Z,26.40
2018-06-21T12:57:07.811Z,26.30
2018-06-21T12:59:36.386Z,26.60
2018-06-21T13:02:04.723Z,26.80
2018-06-21T13:04:33.099Z,26.70
2018-06-21T13:07:01.428Z,26.70
2018-06-21T13:09:41.091Z,26.50
2018-06-21T13:12:32.712Z,26.80
2018-06-21T13:15:01.103Z,27.20
2018-06-21T13:17:30.543Z,27.40
2018-06-21T13:19:59.950Z,27.30
2018-06-21T13:22:28.574Z,27.00
2018-06-21T13:24:56.972Z,27.50
2018-06-21T13:27:25.328Z,27.00
2018-06-21T13:29:53.687Z,26.70
2018-06-21T13:32:22.051Z,27.10
2018-06-21T13:34:50.542Z,27.40
2018-06-21T13:37:18.945Z,26.90
2018-06-21T13:39:47.294Z,26.20
2018-06-21T13:42:15.679Z,25.70
2018-06-21T13:44:44.116Z,25.70
2018-06-21T13:47:12.533Z,25.60
2018-06-21T13:49:40.828Z,25.60
2018-06-21T13:52:09.211Z,25.50
2018-06-21T13:54:37.609Z,24.90
2018-06-21T13:57:05.947Z,24.50
2018-06-21T13:59:34.304Z,24.20
2018-06-21T14:02:02.705Z,24.40
2018-06-21T14:04:31.051Z,24.50
2018-06-21T14:06:59.423Z,24.50
2018-06-21T14:09:27.763Z,24.10
2018-06-21T14:11:56.123Z,24.00
2018-06-21T14:14:24.476Z,23.90
2018-06-21T14:16:52.914Z,23.50
2018-06-21T14:19:21.382Z,23.40
2018-06-21T14:21:49.662Z,23.40
2018-06-21T14:24:18.033Z,23.40
2018-06-21T14:26:46.403Z,23.40
2018-06-21T14:29:14.780Z,23.30
2018-06-21T14:31:43.153Z,23.20
2018-06-21T14:34:11.543Z,23.00
2018-06-21T14:36:39.906Z,23.00
2018-06-21T14:39:08.960Z,22.80
2018-06-21T14:41:37.606Z,22.60
2018-06-21T14:44:06.070Z,22.50
2018-06-21T14:46:34.539Z,22.30
2018-06-21T14:49:02.935Z,22.40
2018-06-21T14:51:31.297Z,22.60
2018-06-21T14:53:59.736Z,22.50
2018-06-21T14:56:28.122Z,22.60
2018-06-21T14:58:56.493Z,22.90
2018-06-21T15:01:24.851Z,22.90
2018-06-21T15:03:53.235Z,23.00
2018-06-21T15:06:21.731Z,23.00
2018-06-21T15:08:50.145Z,23.20
2018-06-21T15:11:18.527Z,23.00
2018-06-21T15:13:49.931Z,23.00
2018-06-21T15:16:20.076Z,23.00
2018-06-21T15:18:48.536Z,23.00
2018-06-21T15:21:17.348Z,23.10
2018-06-21T15:23:45.871Z,23.00
2018-06-21T15:26:14.227Z,22.90
2018-06-21T15:28:42.801Z,23.00
2018-06-21T15:31:11.303Z,23.00
2018-06-21T15:33:39.690Z,22.90
2018-06-21T15:36:09.240Z,22.80
2018-06-21T15:38:37.681Z,22.80
2018-06-21T15:41:06.047Z,22.70
2018-06-21T15:43:34.627Z,22.60
2018-06-21T15:46:02.987Z,22.60
2018-06-21T15:48:31.482Z,22.50
2018-06-21T15:50:59.868Z,22.50
2018-06-21T15:53:28.311Z,22.60
2018-06-21T15:55:56.739Z,22.70
2018-06-21T15:58:25.189Z,22.70
2018-06-21T16:00:53.576Z,22.60
2018-06-21T16:03:21.936Z,22.40
2018-06-21T16:05:50.391Z,22.50
2018-06-21T16:08:18.741Z,22.60
2018-06-21T16:10:47.227Z,22.60
2018-06-21T16:13:16.479Z,22.50
2018-06-21T16:15:46.146Z,22.50
2018-06-21T16:18:14.547Z,22.50
2018-06-21T16:20:43.109Z,22.40
2018-06-21T16:23:11.849Z,22.50
2018-06-21T16:25:40.253Z,22.50
2018-06-21T16:28:08.723Z,22.40
2018-06-21T16:30:37.148Z,22.30
2018-06-21T16:33:05.711Z,22.00
2018-06-21T16:35:34.107Z,21.90
2018-06-21T16:38:02.494Z,21.80
2018-06-21T16:40:30.860Z,21.80
2018-06-21T16:42:59.540Z,21.80
2018-06-21T16:45:28.054Z,21.80
2018-06-21T16:47:56.577Z,21.70
2018-06-21T16:50:25.059Z,21.70
2018-06-21T16:52:53.555Z,21.70
2018-06-21T16:55:21.980Z,21.60
2018-06-21T16:57:50.377Z,21.60
2018-06-21T17:00:18.748Z,21.70
2018-06-21T17:02:47.111Z,21.60
2018-06-21T17:05:15.788Z,21.70
2018-06-21T17:07:44.514Z,21.60
2018-06-21T17:10:12.876Z,21.60
2018-06-21T17:12:41.255Z,21.50
2018-06-21T17:15:09.767Z,21.50
2018-06-21T17:17:38.281Z,21.50
2018-06-21T17:20:06.655Z,21.60
2018-06-21T17:22:35.098Z,21.60
2018-06-21T17:25:03.647Z,21.60
2018-06-21T17:27:32.015Z,21.60
2018-06-21T17:30:00.379Z,21.70
2018-06-21T17:32:28.772Z,21.50
2018-06-21T17:34:57.148Z,21.30
2018-06-21T17:37:25.848Z,21.20
2018-06-21T17:39:54.182Z,21.10
2018-06-21T17:42:22.581Z,21.30
2018-06-21T17:44:50.965Z,21.30
2018-06-21T17:47:19.363Z,21.30
2018-06-21T17:49:47.715Z,21.30
2018-06-21T17:52:16.083Z,21.20
2018-06-21T17:54:44.431Z,21.00
2018-06-21T17:57:12.814Z,20.90
2018-06-21T17:59:41.155Z,20.90
2018-06-21T18:02:09.541Z,21.00
2018-06-21T18:04:37.935Z,21.10
2018-06-21T18:07:06.331Z,21.10
2018-06-21T18:09:34.685Z,21.10
2018-06-21T18:12:03.615Z,21.20
2018-06-21T18:14:31.999Z,21.20
2018-06-21T18:17:00.451Z,21.10
2018-06-21T18:19:28.923Z,20.80
2018-06-21T18:21:57.313Z,20.60
2018-06-21T18:24:25.706Z,20.30
2018-06-21T18:26:54.219Z,20.10
2018-06-21T18:29:23.594Z,20.00
2018-06-21T18:31:52.516Z,19.90
2018-06-21T18:34:20.883Z,19.80
2018-06-21T18:36:50.190Z,19.80
2018-06-21T18:39:20.996Z,19.80
2018-06-21T18:41:49.403Z,19.80
2018-06-21T18:44:17.772Z,19.70
2018-06-21T18:46:46.140Z,19.70
2018-06-21T18:49:14.523Z,19.80
2018-06-21T18:51:43.160Z,19.70
2018-06-21T18:54:11.515Z,19.60
2018-06-21T18:56:39.871Z,19.70
2018-06-21T18:59:08.264Z,19.60
2018-06-21T19:01:36.871Z,19.50
2018-06-21T19:04:05.264Z,19.50
2018-06-21T19:07:40.710Z,19.50
2018-06-21T19:10:14.503Z,19.40
2018-06-21T19:12:43.029Z,19.30
2018-06-21T19:15:11.386Z,19.30
2018-06-21T19:17:39.826Z,19.20
2018-06-21T19:20:08.171Z,19.20
2018-06-21T19:22:36.538Z,19.10
2018-06-21T19:25:04.903Z,19.00
2018-06-21T19:27:33.238Z,19.00
2018-06-21T19:30:01.653Z,18.90
2018-06-21T19:32:30.113Z,18.80
2018-06-21T19:34:58.517Z,18.70
2018-06-21T19:37:26.907Z,18.70
2018-06-21T19:39:55.304Z,18.60
2018-06-21T19:42:23.657Z,18.60
2018-06-21T19:44:52.034Z,18.50
2018-06-21T19:47:20.374Z,18.50
2018-06-21T19:49:48.912Z,18.40
2018-06-21T19:52:17.275Z,18.40
2018-06-21T19:54:46.008Z,18.40
2018-06-21T19:57:14.731Z,18.30
2018-06-21T19:59:43.119Z,18.10
2018-06-21T20:02:11.967Z,18.00
2018-06-21T20:04:40.399Z,18.10
2018-06-21T20:07:09.963Z,18.00
2018-06-21T20:09:38.384Z,18.00
2018-06-21T20:12:06.998Z,18.00
2018-06-21T20:14:35.771Z,18.00
2018-06-21T20:17:04.187Z,18.00
2018-06-21T20:19:37.798Z,17.90
2018-06-21T20:22:06.651Z,17.80
2018-06-21T20:24:35.011Z,17.80
2018-06-21T20:27:03.403Z,17.70
2018-06-21T20:29:31.749Z,17.60
2018-06-21T20:32:00.115Z,17.60
2018-06-21T20:34:28.478Z,17.50
2018-06-21T20:36:56.840Z,17.40
2018-06-21T20:39:25.171Z,17.20
2018-06-21T20:41:53.534Z,17.10
2018-06-21T20:44:21.872Z,17.00
2018-06-21T20:46:50.245Z,16.90
2018-06-21T20:49:18.598Z,16.70
2018-06-21T20:51:46.980Z,16.70
2018-06-21T20:54:15.343Z,16.60
2018-06-21T20:56:43.774Z,16.50
2018-06-21T20:59:12.835Z,16.50
2018-06-21T21:01:41.979Z,16.50
2018-06-21T21:04:10.593Z,16.40
2018-06-21T21:06:38.971Z,16.40
2018-06-21T21:09:07.609Z,16.30
2018-06-21T21:11:36.015Z,16.20
2018-06-21T21:14:04.463Z,16.10
2018-06-21T21:16:32.885Z,15.90
2018-06-21T21:19:01.191Z,15.80
2018-06-21T21:21:29.818Z,15.90
2018-06-21T21:23:58.196Z,15.90
2018-06-21T21:26:26.556Z,15.90
2018-06-21T21:28:54.896Z,15.90
2018-06-21T21:31:23.279Z,15.80
2018-06-21T21:33:51.860Z,15.70
2018-06-21T21:36:20.240Z,15.70
2018-06-21T21:38:48.591Z,15.60
2018-06-21T21:41:16.947Z,15.50
2018-06-21T21:43:45.331Z,15.40
2018-06-21T21:46:13.755Z,15.50
2018-06-21T21:48:42.123Z,15.20
2018-06-21T21:51:10.496Z,15.10
2018-06-21T21:53:38.884Z,15.10
2018-06-21T21:56:07.241Z,15.10
2018-06-21T21:58:35.599Z,15.10
2018-06-21T22:01:04.061Z,15.10
2018-06-21T22:03:32.364Z,15.10
2018-06-21T22:06:00.731Z,15.00
2018-06-21T22:08:29.078Z,15.00
2018-06-21T22:10:57.418Z,15.00
2018-06-21T22:13:25.776Z,14.90
2018-06-21T22:15:54.135Z,14.80
2018-06-21T22:18:22.499Z,14.80
2018-06-21T22:20:50.834Z,14.70
2018-06-21T22:23:19.337Z,14.60
2018-06-21T22:25:47.694Z,14.50
2018-06-21T22:28:16.057Z,14.50
2018-06-21T22:30:44.400Z,14.50
2018-06-21T22:33:12.954Z,14.40
2018-06-21T22:35:41.296Z,14.30
2018-06-21T22:38:09.668Z,14.30
2018-06-21T22:40:38.007Z,14.30
2018-06-21T22:43:06.373Z,14.20
2018-06-21T22:45:34.726Z,14.30
2018-06-21T22:48:03.062Z,14.20
2018-06-21T22:50:31.453Z,14.20
2018-06-21T22:52:59.775Z,14.00
2018-06-21T22:55:28.127Z,13.90
2018-06-21T22:57:56.464Z,14.00
2018-06-21T23:00:24.812Z,14.00
2018-06-21T23:02:53.168Z,14.00
2018-06-21T23:05:21.579Z,13.90
2018-06-21T23:07:49.873Z,13.90
2018-06-21T23:10:18.238Z,13.90
2018-06-21T23:12:46.624Z,14.00
2018-06-21T23:15:14.975Z,13.90
2018-06-21T23:17:43.335Z,13.90
2018-06-21T23:20:11.729Z,13.90
2018-06-21T23:22:40.071Z,13.90
2018-06-21T23:25:08.419Z,13.80
2018-06-21T23:27:37.024Z,13.80
2018-06-21T23:30:05.454Z,13.70
2018-06-21T23:32:33.785Z,13.60
2018-06-21T23:35:02.140Z,13.60
2018-06-21T23:37:30.487Z,13.50
2018-06-21T23:39:58.847Z,13.50
2018-06-21T23:42:27.181Z,13.40
2018-06-21T23:44:55.571Z,13.30
2018-06-21T23:47:23.916Z,13.30
2018-06-21T23:49:52.276Z,13.30
2018-06-21T23:52:20.622Z,13.20
2018-06-21T23:54:49.023Z,13.10
2018-06-21T23:57:17.384Z,13.10
2018-06-21T23:59:45.867Z,12.90
